sensor_id;sensor_type;location;lat;lon;timestamp;temperature;humidity
6662;DHT22;3367;48.714;8.994;2023-04-25T00:01:37;7.90;99.90
6662;DHT22;3367;48.714;8.994;2023-04-25T00:04:06;7.90;99.90
6662;DHT22;3367;48.714;8.994;2023-04-25T00:06:34;8.00;99.90
6662;DHT22;3367;48.714;8.994;2023-04-25T00:09:01;7.90;99.90
6662;DHT22;3367;48.714;8.994;2023-04-25T00:11:28;7.90;99.90
6662;DHT22;3367;48.714;8.994;2023-04-25T00:13:56;7.90;99.90
6662;DHT22;3367;48.714;8.994;2023-04-25T00:16:23;7.90;99.90
6662;DHT22;3367;48.714;8.994;2023-04-25T00:18:49;7.90;99.90
6662;DHT22;3367;48.714;8.994;2023-04-25T00:21:20;7.90;99.90
6662;DHT22;3367;48.714;8.994;2023-04-25T00:23:49;7.90;99.90
6662;DHT22;3367;48.714;8.994;2023-04-25T00:26:16;7.90;99.90
6662;DHT22;3367;48.714;8.994;2023-04-25T00:28:43;7.90;99.90
6662;DHT22;3367;48.714;8.994;2023-04-25T00:31:10;7.90;99.90
6662;DHT22;3367;48.714;8.994;2023-04-25T00:33:37;7.90;99.90
6662;DHT22;3367;48.714;8.994;2023-04-25T00:36:04;7.90;99.90
6662;DHT22;3367;48.714;8.994;2023-04-25T00:38:32;7.90;99.90
6662;DHT22;3367;48.714;8.994;2023-04-25T00:40:59;7.90;99.90
6662;DHT22;3367;48.714;8.994;2023-04-25T00:43:26;7.90;99.90
6662;DHT22;3367;48.714;8.994;2023-04-25T00:45:53;7.90;99.90
6662;DHT22;3367;48.714;8.994;2023-04-25T00:48:21;7.90;99.90
6662;DHT22;3367;48.714;8.994;2023-04-25T00:50:53;7.90;99.90
6662;DHT22;3367;48.714;8.994;2023-04-25T00:53:20;7.90;99.90
6662;DHT22;3367;48.714;8.994;2023-04-25T00:55:48;7.90;99.90
6662;DHT22;3367;48.714;8.994;2023-04-25T00:58:16;7.90;99.90
6662;DHT22;3367;48.714;8.994;2023-04-25T01:00:44;7.90;99.90
6662;DHT22;3367;48.714;8.994;2023-04-25T01:03:11;7.90;99.90
6662;DHT22;3367;48.714;8.994;2023-04-25T01:05:38;7.90;99.90
6662;DHT22;3367;48.714;8.994;2023-04-25T01:08:07;7.90;1.00
6662;DHT22;3367;48.714;8.994;2023-04-25T01:10:34;7.90;1.00
6662;DHT22;3367;48.714;8.994;2023-04-25T01:13:02;7.90;1.00
6662;DHT22;3367;48.714;8.994;2023-04-25T01:15:29;7.90;1.00
6662;DHT22;3367;48.714;8.994;2023-04-25T01:17:56;7.90;1.00
6662;DHT22;3367;48.714;8.994;2023-04-25T01:20:24;7.80;1.00
6662;DHT22;3367;48.714;8.994;2023-04-25T01:22:53;7.90;1.00
6662;DHT22;3367;48.714;8.994;2023-04-25T01:25:22;7.80;1.00
6662;DHT22;3367;48.714;8.994;2023-04-25T01:27:49;7.80;1.00
6662;DHT22;3367;48.714;8.994;2023-04-25T01:30:16;7.70;1.00
6662;DHT22;3367;48.714;8.994;2023-04-25T01:32:43;7.70;1.00
6662;DHT22;3367;48.714;8.994;2023-04-25T01:35:13;7.70;1.00
6662;DHT22;3367;48.714;8.994;2023-04-25T01:37:39;7.70;1.00
6662;DHT22;3367;48.714;8.994;2023-04-25T01:40:09;7.70;1.00
6662;DHT22;3367;48.714;8.994;2023-04-25T01:42:38;7.60;1.00
6662;DHT22;3367;48.714;8.994;2023-04-25T01:45:07;7.60;1.00
6662;DHT22;3367;48.714;8.994;2023-04-25T01:47:34;7.60;1.00
6662;DHT22;3367;48.714;8.994;2023-04-25T01:50:01;7.60;1.00
6662;DHT22;3367;48.714;8.994;2023-04-25T01:52:28;7.60;1.00
6662;DHT22;3367;48.714;8.994;2023-04-25T01:54:57;7.50;1.00
6662;DHT22;3367;48.714;8.994;2023-04-25T01:57:25;7.50;1.00
6662;DHT22;3367;48.714;8.994;2023-04-25T01:59:52;7.40;1.00
6662;DHT22;3367;48.714;8.994;2023-04-25T02:02:20;7.40;1.00
6662;DHT22;3367;48.714;8.994;2023-04-25T02:04:46;7.40;99.90
6662;DHT22;3367;48.714;8.994;2023-04-25T02:07:13;7.40;99.90
6662;DHT22;3367;48.714;8.994;2023-04-25T02:09:41;7.40;99.90
6662;DHT22;3367;48.714;8.994;2023-04-25T02:12:09;7.30;99.90
6662;DHT22;3367;48.714;8.994;2023-04-25T02:14:37;7.30;99.90
6662;DHT22;3367;48.714;8.994;2023-04-25T02:17:04;7.30;99.90
6662;DHT22;3367;48.714;8.994;2023-04-25T02:19:31;7.30;99.90
6662;DHT22;3367;48.714;8.994;2023-04-25T02:21:58;7.20;99.90
6662;DHT22;3367;48.714;8.994;2023-04-25T02:24:25;7.20;1.00
6662;DHT22;3367;48.714;8.994;2023-04-25T02:26:53;7.20;1.00
6662;DHT22;3367;48.714;8.994;2023-04-25T02:29:21;7.10;1.00
6662;DHT22;3367;48.714;8.994;2023-04-25T02:31:49;7.20;1.00
6662;DHT22;3367;48.714;8.994;2023-04-25T02:34:16;7.10;1.00
6662;DHT22;3367;48.714;8.994;2023-04-25T02:36:42;7.10;1.00
6662;DHT22;3367;48.714;8.994;2023-04-25T02:39:09;7.10;1.00
6662;DHT22;3367;48.714;8.994;2023-04-25T02:41:36;7.10;1.00
6662;DHT22;3367;48.714;8.994;2023-04-25T02:44:03;7.10;1.00
6662;DHT22;3367;48.714;8.994;2023-04-25T02:46:30;7.10;1.00
6662;DHT22;3367;48.714;8.994;2023-04-25T02:48:58;7.10;1.00
6662;DHT22;3367;48.714;8.994;2023-04-25T02:51:25;7.10;1.00
6662;DHT22;3367;48.714;8.994;2023-04-25T02:53:51;7.10;1.00
6662;DHT22;3367;48.714;8.994;2023-04-25T02:56:18;7.10;1.00
6662;DHT22;3367;48.714;8.994;2023-04-25T02:58:45;7.10;1.00
6662;DHT22;3367;48.714;8.994;2023-04-25T03:01:11;7.10;1.00
6662;DHT22;3367;48.714;8.994;2023-04-25T03:03:38;7.10;1.00
6662;DHT22;3367;48.714;8.994;2023-04-25T03:06:06;7.20;1.00
6662;DHT22;3367;48.714;8.994;2023-04-25T03:08:33;7.20;1.00
6662;DHT22;3367;48.714;8.994;2023-04-25T03:11:00;7.20;1.00
6662;DHT22;3367;48.714;8.994;2023-04-25T03:13:27;7.20;1.00
6662;DHT22;3367;48.714;8.994;2023-04-25T03:15:55;7.20;1.00
6662;DHT22;3367;48.714;8.994;2023-04-25T03:18:22;7.20;1.00
6662;DHT22;3367;48.714;8.994;2023-04-25T03:20:48;7.20;1.00
6662;DHT22;3367;48.714;8.994;2023-04-25T03:23:16;7.20;1.00
6662;DHT22;3367;48.714;8.994;2023-04-25T03:25:43;7.20;1.00
6662;DHT22;3367;48.714;8.994;2023-04-25T03:28:10;7.20;1.00
6662;DHT22;3367;48.714;8.994;2023-04-25T03:30:36;7.20;1.00
6662;DHT22;3367;48.714;8.994;2023-04-25T03:33:03;7.10;1.00
6662;DHT22;3367;48.714;8.994;2023-04-25T03:35:30;7.10;1.00
6662;DHT22;3367;48.714;8.994;2023-04-25T03:37:56;7.00;1.00
6662;DHT22;3367;48.714;8.994;2023-04-25T03:40:24;7.00;1.00
6662;DHT22;3367;48.714;8.994;2023-04-25T03:42:51;6.90;1.00
6662;DHT22;3367;48.714;8.994;2023-04-25T03:45:18;6.90;1.00
6662;DHT22;3367;48.714;8.994;2023-04-25T03:47:44;7.00;1.00
6662;DHT22;3367;48.714;8.994;2023-04-25T03:50:11;7.00;1.00
6662;DHT22;3367;48.714;8.994;2023-04-25T03:52:38;7.00;1.00
6662;DHT22;3367;48.714;8.994;2023-04-25T03:55:05;7.00;1.00
6662;DHT22;3367;48.714;8.994;2023-04-25T03:57:34;7.00;1.00
6662;DHT22;3367;48.714;8.994;2023-04-25T04:00:00;7.00;1.00
6662;DHT22;3367;48.714;8.994;2023-04-25T04:02:28;7.00;1.00
6662;DHT22;3367;48.714;8.994;2023-04-25T04:04:55;7.00;1.00
6662;DHT22;3367;48.714;8.994;2023-04-25T04:07:22;7.00;1.00
6662;DHT22;3367;48.714;8.994;2023-04-25T04:09:49;6.90;1.00
6662;DHT22;3367;48.714;8.994;2023-04-25T04:12:15;6.80;1.00
6662;DHT22;3367;48.714;8.994;2023-04-25T04:14:44;6.80;1.00
6662;DHT22;3367;48.714;8.994;2023-04-25T04:17:10;6.80;1.00
6662;DHT22;3367;48.714;8.994;2023-04-25T04:19:37;6.70;1.00
6662;DHT22;3367;48.714;8.994;2023-04-25T04:22:04;6.60;1.00
6662;DHT22;3367;48.714;8.994;2023-04-25T04:24:31;6.60;1.00
6662;DHT22;3367;48.714;8.994;2023-04-25T04:26:58;6.60;1.00
6662;DHT22;3367;48.714;8.994;2023-04-25T04:29:25;6.60;90.50
6662;DHT22;3367;48.714;8.994;2023-04-25T04:31:54;6.50;99.90
6662;DHT22;3367;48.714;8.994;2023-04-25T04:34:20;6.50;99.90
6662;DHT22;3367;48.714;8.994;2023-04-25T04:36:47;6.50;99.90
6662;DHT22;3367;48.714;8.994;2023-04-25T04:39:14;6.50;99.90
6662;DHT22;3367;48.714;8.994;2023-04-25T04:41:41;6.50;99.90
6662;DHT22;3367;48.714;8.994;2023-04-25T04:44:08;6.50;99.90
6662;DHT22;3367;48.714;8.994;2023-04-25T04:46:35;6.60;99.90
6662;DHT22;3367;48.714;8.994;2023-04-25T04:49:08;6.60;99.90
6662;DHT22;3367;48.714;8.994;2023-04-25T04:51:35;6.60;99.90
6662;DHT22;3367;48.714;8.994;2023-04-25T04:54:02;6.60;99.90
6662;DHT22;3367;48.714;8.994;2023-04-25T04:56:29;6.70;99.90
6662;DHT22;3367;48.714;8.994;2023-04-25T04:58:57;6.80;99.90
6662;DHT22;3367;48.714;8.994;2023-04-25T05:01:24;6.80;99.90
6662;DHT22;3367;48.714;8.994;2023-04-25T05:03:51;6.90;99.90
6662;DHT22;3367;48.714;8.994;2023-04-25T05:06:19;6.90;99.90
6662;DHT22;3367;48.714;8.994;2023-04-25T05:08:46;7.00;99.90
6662;DHT22;3367;48.714;8.994;2023-04-25T05:11:13;7.10;78.90
6662;DHT22;3367;48.714;8.994;2023-04-25T05:13:40;7.10;44.50
6662;DHT22;3367;48.714;8.994;2023-04-25T05:16:06;7.10;94.20
6662;DHT22;3367;48.714;8.994;2023-04-25T05:18:33;7.10;99.90
6662;DHT22;3367;48.714;8.994;2023-04-25T05:21:00;7.10;99.90
6662;DHT22;3367;48.714;8.994;2023-04-25T05:23:28;7.10;1.00
6662;DHT22;3367;48.714;8.994;2023-04-25T05:25:55;7.10;1.00
6662;DHT22;3367;48.714;8.994;2023-04-25T05:28:22;7.10;1.00
6662;DHT22;3367;48.714;8.994;2023-04-25T05:30:49;7.20;1.00
6662;DHT22;3367;48.714;8.994;2023-04-25T05:33:16;7.20;1.00
6662;DHT22;3367;48.714;8.994;2023-04-25T05:35:43;7.20;1.00
6662;DHT22;3367;48.714;8.994;2023-04-25T05:38:09;7.30;1.00
6662;DHT22;3367;48.714;8.994;2023-04-25T05:40:38;7.30;1.00
6662;DHT22;3367;48.714;8.994;2023-04-25T05:43:04;7.30;1.00
6662;DHT22;3367;48.714;8.994;2023-04-25T05:45:31;7.30;1.00
6662;DHT22;3367;48.714;8.994;2023-04-25T05:47:58;7.30;1.00
6662;DHT22;3367;48.714;8.994;2023-04-25T05:50:25;7.30;1.00
6662;DHT22;3367;48.714;8.994;2023-04-25T05:52:52;7.30;1.00
6662;DHT22;3367;48.714;8.994;2023-04-25T05:55:18;7.30;1.00
6662;DHT22;3367;48.714;8.994;2023-04-25T05:57:46;7.30;1.00
6662;DHT22;3367;48.714;8.994;2023-04-25T06:00:14;7.30;1.00
6662;DHT22;3367;48.714;8.994;2023-04-25T06:02:41;7.40;1.00
6662;DHT22;3367;48.714;8.994;2023-04-25T06:05:08;7.40;1.00
6662;DHT22;3367;48.714;8.994;2023-04-25T06:07:35;7.50;1.00
6662;DHT22;3367;48.714;8.994;2023-04-25T06:10:02;7.50;1.00
6662;DHT22;3367;48.714;8.994;2023-04-25T06:12:31;7.50;1.00
6662;DHT22;3367;48.714;8.994;2023-04-25T06:15:00;7.50;1.00
6662;DHT22;3367;48.714;8.994;2023-04-25T06:17:26;7.40;99.90
6662;DHT22;3367;48.714;8.994;2023-04-25T06:19:53;7.40;99.90
6662;DHT22;3367;48.714;8.994;2023-04-25T06:22:20;7.40;99.90
6662;DHT22;3367;48.714;8.994;2023-04-25T06:24:47;7.40;99.90
6662;DHT22;3367;48.714;8.994;2023-04-25T06:27:13;7.40;99.90
6662;DHT22;3367;48.714;8.994;2023-04-25T06:29:40;7.40;99.90
6662;DHT22;3367;48.714;8.994;2023-04-25T06:32:08;7.50;99.90
6662;DHT22;3367;48.714;8.994;2023-04-25T06:34:35;7.40;99.90
6662;DHT22;3367;48.714;8.994;2023-04-25T06:37:02;7.40;99.90
6662;DHT22;3367;48.714;8.994;2023-04-25T06:39:29;7.40;99.90
6662;DHT22;3367;48.714;8.994;2023-04-25T06:41:55;7.30;99.90
6662;DHT22;3367;48.714;8.994;2023-04-25T06:44:22;7.30;99.90
6662;DHT22;3367;48.714;8.994;2023-04-25T06:46:51;7.40;99.90
6662;DHT22;3367;48.714;8.994;2023-04-25T06:49:19;7.50;99.90
6662;DHT22;3367;48.714;8.994;2023-04-25T06:51:46;7.50;99.90
6662;DHT22;3367;48.714;8.994;2023-04-25T06:54:13;7.50;1.00
6662;DHT22;3367;48.714;8.994;2023-04-25T06:56:40;7.50;1.00
6662;DHT22;3367;48.714;8.994;2023-04-25T06:59:06;7.50;1.00
6662;DHT22;3367;48.714;8.994;2023-04-25T07:01:33;7.40;68.50
6662;DHT22;3367;48.714;8.994;2023-04-25T07:04:00;7.40;99.90
6662;DHT22;3367;48.714;8.994;2023-04-25T07:06:28;7.40;99.90
6662;DHT22;3367;48.714;8.994;2023-04-25T07:08:56;7.40;99.90
6662;DHT22;3367;48.714;8.994;2023-04-25T07:11:23;7.30;99.90
6662;DHT22;3367;48.714;8.994;2023-04-25T07:13:50;7.40;1.00
6662;DHT22;3367;48.714;8.994;2023-04-25T07:16:17;7.40;1.00
6662;DHT22;3367;48.714;8.994;2023-04-25T07:18:43;7.40;1.00
6662;DHT22;3367;48.714;8.994;2023-04-25T07:21:11;7.40;1.00
6662;DHT22;3367;48.714;8.994;2023-04-25T07:23:39;7.40;1.00
6662;DHT22;3367;48.714;8.994;2023-04-25T07:26:06;7.40;1.00
6662;DHT22;3367;48.714;8.994;2023-04-25T07:28:33;7.30;1.00
6662;DHT22;3367;48.714;8.994;2023-04-25T07:31:00;7.40;53.50
6662;DHT22;3367;48.714;8.994;2023-04-25T07:33:27;7.30;1.00
6662;DHT22;3367;48.714;8.994;2023-04-25T07:35:54;7.30;1.00
6662;DHT22;3367;48.714;8.994;2023-04-25T07:38:21;7.30;59.30
6662;DHT22;3367;48.714;8.994;2023-04-25T07:40:51;7.30;17.70
6662;DHT22;3367;48.714;8.994;2023-04-25T07:43:18;7.40;94.00
6662;DHT22;3367;48.714;8.994;2023-04-25T07:45:45;7.40;99.90
6662;DHT22;3367;48.714;8.994;2023-04-25T07:48:15;7.40;99.90
6662;DHT22;3367;48.714;8.994;2023-04-25T07:50:42;7.50;1.00
6662;DHT22;3367;48.714;8.994;2023-04-25T07:53:09;7.40;99.90
6662;DHT22;3367;48.714;8.994;2023-04-25T07:55:36;7.50;1.00
6662;DHT22;3367;48.714;8.994;2023-04-25T07:58:06;7.50;1.00
6662;DHT22;3367;48.714;8.994;2023-04-25T08:00:33;7.50;1.00
6662;DHT22;3367;48.714;8.994;2023-04-25T08:03:00;7.50;1.00
6662;DHT22;3367;48.714;8.994;2023-04-25T08:05:28;7.50;1.00
6662;DHT22;3367;48.714;8.994;2023-04-25T08:07:55;7.50;1.00
6662;DHT22;3367;48.714;8.994;2023-04-25T08:10:22;7.50;1.00
6662;DHT22;3367;48.714;8.994;2023-04-25T08:12:49;7.40;1.00
6662;DHT22;3367;48.714;8.994;2023-04-25T08:15:17;7.50;1.00
6662;DHT22;3367;48.714;8.994;2023-04-25T08:17:44;7.50;1.00
6662;DHT22;3367;48.714;8.994;2023-04-25T08:20:11;7.50;1.00
6662;DHT22;3367;48.714;8.994;2023-04-25T08:22:38;7.50;1.00
6662;DHT22;3367;48.714;8.994;2023-04-25T08:25:05;7.50;1.00
6662;DHT22;3367;48.714;8.994;2023-04-25T08:27:32;7.40;10.40
6662;DHT22;3367;48.714;8.994;2023-04-25T08:29:59;7.40;99.90
6662;DHT22;3367;48.714;8.994;2023-04-25T08:32:27;7.40;99.90
6662;DHT22;3367;48.714;8.994;2023-04-25T08:34:54;7.40;99.90
6662;DHT22;3367;48.714;8.994;2023-04-25T08:37:21;7.40;56.30
6662;DHT22;3367;48.714;8.994;2023-04-25T08:39:47;7.30;1.00
6662;DHT22;3367;48.714;8.994;2023-04-25T08:42:17;7.40;99.90
6662;DHT22;3367;48.714;8.994;2023-04-25T08:44:45;7.40;99.90
6662;DHT22;3367;48.714;8.994;2023-04-25T08:47:12;7.40;99.90
6662;DHT22;3367;48.714;8.994;2023-04-25T08:49:45;7.50;99.90
6662;DHT22;3367;48.714;8.994;2023-04-25T08:52:13;7.60;1.00
6662;DHT22;3367;48.714;8.994;2023-04-25T08:54:42;7.60;1.00
6662;DHT22;3367;48.714;8.994;2023-04-25T08:57:10;7.60;1.00
6662;DHT22;3367;48.714;8.994;2023-04-25T08:59:37;7.60;99.90
6662;DHT22;3367;48.714;8.994;2023-04-25T09:02:06;7.50;1.00
6662;DHT22;3367;48.714;8.994;2023-04-25T09:04:34;7.40;1.00
6662;DHT22;3367;48.714;8.994;2023-04-25T09:07:03;7.40;18.60
6662;DHT22;3367;48.714;8.994;2023-04-25T09:09:30;7.50;1.00
6662;DHT22;3367;48.714;8.994;2023-04-25T09:11:57;7.50;1.00
6662;DHT22;3367;48.714;8.994;2023-04-25T09:14:25;7.40;1.00
6662;DHT22;3367;48.714;8.994;2023-04-25T09:17:03;7.30;99.90
6662;DHT22;3367;48.714;8.994;2023-04-25T09:19:32;7.30;1.00
6662;DHT22;3367;48.714;8.994;2023-04-25T09:22:03;7.40;1.00
6662;DHT22;3367;48.714;8.994;2023-04-25T09:24:35;7.30;99.90
6662;DHT22;3367;48.714;8.994;2023-04-25T09:27:05;7.20;99.90
6662;DHT22;3367;48.714;8.994;2023-04-25T09:29:33;7.10;1.00
6662;DHT22;3367;48.714;8.994;2023-04-25T09:32:15;7.20;1.00
6662;DHT22;3367;48.714;8.994;2023-04-25T09:34:44;7.20;1.00
6662;DHT22;3367;48.714;8.994;2023-04-25T09:37:17;7.10;1.00
6662;DHT22;3367;48.714;8.994;2023-04-25T09:39:46;7.00;99.90
6662;DHT22;3367;48.714;8.994;2023-04-25T09:42:14;6.80;1.00
6662;DHT22;3367;48.714;8.994;2023-04-25T09:44:43;6.80;16.50
6662;DHT22;3367;48.714;8.994;2023-04-25T09:47:11;6.80;99.90
6662;DHT22;3367;48.714;8.994;2023-04-25T09:49:39;6.70;99.90
6662;DHT22;3367;48.714;8.994;2023-04-25T09:52:07;6.70;99.90
6662;DHT22;3367;48.714;8.994;2023-04-25T09:54:36;6.70;1.00
6662;DHT22;3367;48.714;8.994;2023-04-25T09:57:12;6.70;1.00
6662;DHT22;3367;48.714;8.994;2023-04-25T09:59:43;6.70;99.90
6662;DHT22;3367;48.714;8.994;2023-04-25T10:02:11;6.80;1.00
6662;DHT22;3367;48.714;8.994;2023-04-25T10:04:38;7.00;1.00
6662;DHT22;3367;48.714;8.994;2023-04-25T10:07:07;7.00;1.00
6662;DHT22;3367;48.714;8.994;2023-04-25T10:09:38;7.10;1.00
6662;DHT22;3367;48.714;8.994;2023-04-25T10:12:07;7.10;99.90
6662;DHT22;3367;48.714;8.994;2023-04-25T10:14:34;7.10;1.00
6662;DHT22;3367;48.714;8.994;2023-04-25T10:17:02;7.20;1.00
6662;DHT22;3367;48.714;8.994;2023-04-25T10:19:29;7.30;1.00
6662;DHT22;3367;48.714;8.994;2023-04-25T10:22:03;7.50;99.90
6662;DHT22;3367;48.714;8.994;2023-04-25T10:24:31;7.30;99.90
6662;DHT22;3367;48.714;8.994;2023-04-25T10:26:59;7.20;99.90
6662;DHT22;3367;48.714;8.994;2023-04-25T10:29:27;7.10;99.90
6662;DHT22;3367;48.714;8.994;2023-04-25T10:31:54;7.30;1.00
6662;DHT22;3367;48.714;8.994;2023-04-25T10:34:37;7.40;1.00
6662;DHT22;3367;48.714;8.994;2023-04-25T10:37:05;7.30;1.00
6662;DHT22;3367;48.714;8.994;2023-04-25T10:39:34;7.50;1.00
6662;DHT22;3367;48.714;8.994;2023-04-25T10:42:06;7.50;99.90
6662;DHT22;3367;48.714;8.994;2023-04-25T10:44:34;7.50;1.00
6662;DHT22;3367;48.714;8.994;2023-04-25T10:47:03;7.50;1.00
6662;DHT22;3367;48.714;8.994;2023-04-25T10:49:33;7.50;1.00
6662;DHT22;3367;48.714;8.994;2023-04-25T10:52:15;7.50;1.00
6662;DHT22;3367;48.714;8.994;2023-04-25T10:54:46;7.40;1.00
6662;DHT22;3367;48.714;8.994;2023-04-25T10:57:30;7.40;1.00
6662;DHT22;3367;48.714;8.994;2023-04-25T11:00:01;7.50;1.00
6662;DHT22;3367;48.714;8.994;2023-04-25T11:02:30;7.60;1.00
6662;DHT22;3367;48.714;8.994;2023-04-25T11:04:57;7.60;1.00
6662;DHT22;3367;48.714;8.994;2023-04-25T11:07:32;7.80;91.10
6662;DHT22;3367;48.714;8.994;2023-04-25T11:10:02;7.90;99.90
6662;DHT22;3367;48.714;8.994;2023-04-25T11:12:32;7.70;1.00
6662;DHT22;3367;48.714;8.994;2023-04-25T11:15:00;7.60;1.00
6662;DHT22;3367;48.714;8.994;2023-04-25T11:17:28;7.70;86.10
6662;DHT22;3367;48.714;8.994;2023-04-25T11:19:55;7.60;1.00
6662;DHT22;3367;48.714;8.994;2023-04-25T11:22:23;7.50;1.00
6662;DHT22;3367;48.714;8.994;2023-04-25T11:24:49;7.20;1.00
6662;DHT22;3367;48.714;8.994;2023-04-25T11:27:17;7.00;1.00
6662;DHT22;3367;48.714;8.994;2023-04-25T11:29:45;7.10;1.00
6662;DHT22;3367;48.714;8.994;2023-04-25T11:32:14;7.10;1.00
6662;DHT22;3367;48.714;8.994;2023-04-25T11:34:43;7.10;1.00
6662;DHT22;3367;48.714;8.994;2023-04-25T11:37:10;7.20;1.00
6662;DHT22;3367;48.714;8.994;2023-04-25T11:39:38;7.30;1.00
6662;DHT22;3367;48.714;8.994;2023-04-25T11:42:05;7.30;1.00
6662;DHT22;3367;48.714;8.994;2023-04-25T11:44:32;7.50;99.90
6662;DHT22;3367;48.714;8.994;2023-04-25T11:47:00;7.50;1.00
6662;DHT22;3367;48.714;8.994;2023-04-25T11:49:30;7.70;1.00
6662;DHT22;3367;48.714;8.994;2023-04-25T11:51:57;7.80;99.90
6662;DHT22;3367;48.714;8.994;2023-04-25T11:54:23;8.00;1.00
6662;DHT22;3367;48.714;8.994;2023-04-25T11:56:50;8.00;1.00
6662;DHT22;3367;48.714;8.994;2023-04-25T11:59:17;8.10;13.60
6662;DHT22;3367;48.714;8.994;2023-04-25T12:01:50;8.10;1.00
6662;DHT22;3367;48.714;8.994;2023-04-25T12:04:19;8.10;1.00
6662;DHT22;3367;48.714;8.994;2023-04-25T12:06:48;8.20;1.00
6662;DHT22;3367;48.714;8.994;2023-04-25T12:09:18;8.20;1.00
6662;DHT22;3367;48.714;8.994;2023-04-25T12:11:47;8.20;1.00
6662;DHT22;3367;48.714;8.994;2023-04-25T12:14:21;8.20;1.00
6662;DHT22;3367;48.714;8.994;2023-04-25T12:16:49;8.10;1.00
6662;DHT22;3367;48.714;8.994;2023-04-25T12:19:20;8.20;99.90
6662;DHT22;3367;48.714;8.994;2023-04-25T12:21:48;8.10;1.00
6662;DHT22;3367;48.714;8.994;2023-04-25T12:24:16;8.00;1.00
6662;DHT22;3367;48.714;8.994;2023-04-25T12:26:48;8.00;1.00
6662;DHT22;3367;48.714;8.994;2023-04-25T12:29:16;8.30;1.00
6662;DHT22;3367;48.714;8.994;2023-04-25T12:31:43;8.50;1.00
6662;DHT22;3367;48.714;8.994;2023-04-25T12:34:10;8.50;1.00
6662;DHT22;3367;48.714;8.994;2023-04-25T12:36:38;8.60;1.00
6662;DHT22;3367;48.714;8.994;2023-04-25T12:39:05;8.70;1.00
6662;DHT22;3367;48.714;8.994;2023-04-25T12:41:32;8.70;1.00
6662;DHT22;3367;48.714;8.994;2023-04-25T12:43:59;8.70;1.00
6662;DHT22;3367;48.714;8.994;2023-04-25T12:46:26;8.80;1.00
6662;DHT22;3367;48.714;8.994;2023-04-25T12:48:53;8.90;1.00
6662;DHT22;3367;48.714;8.994;2023-04-25T12:51:20;9.00;1.00
6662;DHT22;3367;48.714;8.994;2023-04-25T12:53:51;9.20;1.00
6662;DHT22;3367;48.714;8.994;2023-04-25T12:56:18;9.30;1.00
6662;DHT22;3367;48.714;8.994;2023-04-25T12:58:45;9.40;1.00
6662;DHT22;3367;48.714;8.994;2023-04-25T13:01:13;9.40;47.70
6662;DHT22;3367;48.714;8.994;2023-04-25T13:03:40;9.30;99.90
6662;DHT22;3367;48.714;8.994;2023-04-25T13:06:07;9.30;1.00
6662;DHT22;3367;48.714;8.994;2023-04-25T13:08:33;9.40;1.00
6662;DHT22;3367;48.714;8.994;2023-04-25T13:11:03;9.50;16.00
6662;DHT22;3367;48.714;8.994;2023-04-25T13:13:30;9.50;1.00
6662;DHT22;3367;48.714;8.994;2023-04-25T13:15:57;9.50;1.00
6662;DHT22;3367;48.714;8.994;2023-04-25T13:18:23;9.50;1.00
6662;DHT22;3367;48.714;8.994;2023-04-25T13:20:51;9.70;1.00
6662;DHT22;3367;48.714;8.994;2023-04-25T13:23:18;9.90;99.90
6662;DHT22;3367;48.714;8.994;2023-04-25T13:25:45;9.90;99.90
6662;DHT22;3367;48.714;8.994;2023-04-25T13:28:13;9.90;1.00
6662;DHT22;3367;48.714;8.994;2023-04-25T13:30:41;10.00;99.90
6662;DHT22;3367;48.714;8.994;2023-04-25T13:33:08;10.10;1.00
6662;DHT22;3367;48.714;8.994;2023-04-25T13:35:36;10.10;1.00
6662;DHT22;3367;48.714;8.994;2023-04-25T13:38:03;10.20;1.00
6662;DHT22;3367;48.714;8.994;2023-04-25T13:40:30;10.30;1.00
6662;DHT22;3367;48.714;8.994;2023-04-25T13:42:57;10.20;1.00
6662;DHT22;3367;48.714;8.994;2023-04-25T13:45:25;10.30;6.90
6662;DHT22;3367;48.714;8.994;2023-04-25T13:47:52;10.30;1.00
6662;DHT22;3367;48.714;8.994;2023-04-25T13:50:19;10.40;1.00
6662;DHT22;3367;48.714;8.994;2023-04-25T13:52:45;10.40;1.00
6662;DHT22;3367;48.714;8.994;2023-04-25T13:55:12;10.30;1.00
6662;DHT22;3367;48.714;8.994;2023-04-25T13:57:39;10.30;1.00
6662;DHT22;3367;48.714;8.994;2023-04-25T14:00:07;10.20;1.00
6662;DHT22;3367;48.714;8.994;2023-04-25T14:02:36;10.20;1.00
6662;DHT22;3367;48.714;8.994;2023-04-25T14:05:04;10.30;1.00
6662;DHT22;3367;48.714;8.994;2023-04-25T14:07:32;10.30;1.00
6662;DHT22;3367;48.714;8.994;2023-04-25T14:10:00;10.50;1.00
6662;DHT22;3367;48.714;8.994;2023-04-25T14:12:27;10.40;1.00
6662;DHT22;3367;48.714;8.994;2023-04-25T14:14:54;10.30;1.00
6662;DHT22;3367;48.714;8.994;2023-04-25T14:17:20;10.20;1.00
6662;DHT22;3367;48.714;8.994;2023-04-25T14:19:49;10.10;1.00
6662;DHT22;3367;48.714;8.994;2023-04-25T14:22:16;10.10;1.00
6662;DHT22;3367;48.714;8.994;2023-04-25T14:24:43;10.30;1.00
6662;DHT22;3367;48.714;8.994;2023-04-25T14:27:09;10.50;1.00
6662;DHT22;3367;48.714;8.994;2023-04-25T14:29:37;10.50;1.00
6662;DHT22;3367;48.714;8.994;2023-04-25T14:32:04;10.60;1.00
6662;DHT22;3367;48.714;8.994;2023-04-25T14:34:31;10.50;1.00
6662;DHT22;3367;48.714;8.994;2023-04-25T14:37:00;10.60;1.00
6662;DHT22;3367;48.714;8.994;2023-04-25T14:39:26;10.50;1.00
6662;DHT22;3367;48.714;8.994;2023-04-25T14:41:53;10.50;1.00
6662;DHT22;3367;48.714;8.994;2023-04-25T14:44:20;10.40;1.00
6662;DHT22;3367;48.714;8.994;2023-04-25T14:46:46;10.50;1.00
6662;DHT22;3367;48.714;8.994;2023-04-25T14:49:13;10.70;1.00
6662;DHT22;3367;48.714;8.994;2023-04-25T14:51:40;10.90;1.00
6662;DHT22;3367;48.714;8.994;2023-04-25T14:54:08;11.00;81.10
6662;DHT22;3367;48.714;8.994;2023-04-25T14:56:36;11.00;1.00
6662;DHT22;3367;48.714;8.994;2023-04-25T14:59:03;10.90;1.00
6662;DHT22;3367;48.714;8.994;2023-04-25T15:01:29;10.90;1.00
6662;DHT22;3367;48.714;8.994;2023-04-25T15:03:56;11.00;1.00
6662;DHT22;3367;48.714;8.994;2023-04-25T15:06:23;11.00;1.00
6662;DHT22;3367;48.714;8.994;2023-04-25T15:08:51;11.00;1.00
6662;DHT22;3367;48.714;8.994;2023-04-25T15:11:20;11.00;1.00
6662;DHT22;3367;48.714;8.994;2023-04-25T15:13:47;10.90;1.00
6662;DHT22;3367;48.714;8.994;2023-04-25T15:16:14;10.80;1.00
6662;DHT22;3367;48.714;8.994;2023-04-25T15:18:41;10.90;1.00
6662;DHT22;3367;48.714;8.994;2023-04-25T15:21:07;10.90;1.00
6662;DHT22;3367;48.714;8.994;2023-04-25T15:23:34;10.90;1.00
6662;DHT22;3367;48.714;8.994;2023-04-25T15:26:01;10.90;1.00
6662;DHT22;3367;48.714;8.994;2023-04-25T15:28:29;10.90;1.00
6662;DHT22;3367;48.714;8.994;2023-04-25T15:30:56;10.90;1.00
6662;DHT22;3367;48.714;8.994;2023-04-25T15:33:23;10.90;1.00
6662;DHT22;3367;48.714;8.994;2023-04-25T15:35:50;10.80;1.00
6662;DHT22;3367;48.714;8.994;2023-04-25T15:38:17;10.70;1.00
6662;DHT22;3367;48.714;8.994;2023-04-25T15:40:44;10.50;1.00
6662;DHT22;3367;48.714;8.994;2023-04-25T15:43:12;10.60;1.00
6662;DHT22;3367;48.714;8.994;2023-04-25T15:45:41;10.50;1.00
6662;DHT22;3367;48.714;8.994;2023-04-25T15:48:08;10.60;1.00
6662;DHT22;3367;48.714;8.994;2023-04-25T15:50:35;10.60;1.00
6662;DHT22;3367;48.714;8.994;2023-04-25T15:53:02;10.50;1.00
6662;DHT22;3367;48.714;8.994;2023-04-25T15:55:29;10.50;1.00
6662;DHT22;3367;48.714;8.994;2023-04-25T15:57:55;10.50;1.00
6662;DHT22;3367;48.714;8.994;2023-04-25T16:00:22;10.40;1.00
6662;DHT22;3367;48.714;8.994;2023-04-25T16:02:50;10.40;1.00
6662;DHT22;3367;48.714;8.994;2023-04-25T16:05:17;10.40;1.00
6662;DHT22;3367;48.714;8.994;2023-04-25T16:07:44;10.40;1.00
6662;DHT22;3367;48.714;8.994;2023-04-25T16:10:12;10.30;1.00
6662;DHT22;3367;48.714;8.994;2023-04-25T16:12:42;10.40;1.00
6662;DHT22;3367;48.714;8.994;2023-04-25T16:15:09;10.40;1.00
6662;DHT22;3367;48.714;8.994;2023-04-25T16:17:36;10.30;1.00
6662;DHT22;3367;48.714;8.994;2023-04-25T16:20:05;10.30;1.00
6662;DHT22;3367;48.714;8.994;2023-04-25T16:22:34;10.40;1.00
6662;DHT22;3367;48.714;8.994;2023-04-25T16:25:01;10.50;1.00
6662;DHT22;3367;48.714;8.994;2023-04-25T16:27:28;10.40;1.00
6662;DHT22;3367;48.714;8.994;2023-04-25T16:29:55;10.30;1.00